Aérodrome :
LOGIN :

S'inscrire | Disclaimer

   EN    FR    IT 

 










Légende :    VFR   VFR Marginal   IFR   IFR Intensif   IFR Très Intensif
Visi : 
Plafond : 
>= 8 km
>= 3000ft
5 à 8 km
1000 à 3000 ft
1500m à 5 km
500 à 1000 ft
800 à 1500m
200 à 500 ft
< 800m
< 200 ft
Symboles :   Orages  Brouillard  Fortes neiges  Fortes précipitations  Vent > 20 kt
SIGMETs :   Divers  Orages  Givrage  Turbulence  Onde Orograph.  Cendres Volcan.







- Altitude de l'aérodrome : 122 ft
- Code IATA : TXL


EDDT - Berlin Tegel Int.

DERNIER METAR :
  • 221750Z 14005KT 110V170 CAVOK 21/07 Q1011 NOSIG

METARs EXPIRÉS :
  • 221720Z 14006KT CAVOK 22/07 Q1012 NOSIG
  • 221650Z 15007KT CAVOK 23/07 Q1012 NOSIG
  • 221620Z 14003KT 090V180 CAVOK 23/05 Q1012 NOSIG
  • 221550Z 14004KT 080V170 CAVOK 23/06 Q1012 NOSIG
  • 221520Z VRB02KT CAVOK 23/05 Q1013 NOSIG

TAF TAF EDDT
Valide du 22 à 18h jusqu'au 23 à 18h UTC


221700Z 2218/2318 14005KT CAVOK
PROB30
TEMPO 2222/2305 25015G25KT -TSRA SCT040CB
BECMG 2304/2306 24005KT
BECMG 2307/2309 27010KT
BECMG 2309/2311 28015G25KT
TEMPO 2309/2314 29020G30KT SHRA BKN025CB
PROB30
TEMPO 2310/2312 -TSRA
Pas de NOTAMs connus pour ce terrain.
2 SIGMETs publiés pour la FIR Bremen (EDWW) :
 
Orages fréquents avec grêle
EDWW SIGMET 2 VALID 221730/221900 EDZH
EDWW BREMEN FIR FRQ TSGR FCST WI N5335 E00636 - N5333 E00751 - N5216 E00732 - N5140 E00711 - N5131 E00550 - N5248 E00701 - N5335 E00636 TOP FL370 MOV NE 30KT WKN=
Orages fréquents avec grêle
EDWW SIGMET 1 VALID 221650/221830 EDZH
EDWW BREMEN FIR FRQ TSGR FCST WI N5222 E01000 - N5129 E01025 - N5120 E00955 - N5121 E00908 - N5220 E00907 - N5222 E01000 TOP FL370 MOV NE 30KT WKN=



MET'MAP, la Météo Aéronautique d'un coup d'oeil ! - Copyright ORBIFLY Décembre 2007 - Disclaimer

ORBIFLY MET'MAP TEAM :

Programmation & Développement : Alexandra Zaïnal
Conception & Développement : Baudouin d'Aumeries
Co-Programmation & Développement : Marc-Olivier Méhu
Soutien technique & logistique : Manuel Goepfert

Contact : metmap@orbifly.com




SOURCES & CREDITS :

   NOAA